createdAt,value
2019-03-24T00:01:11.053Z,11.93
2019-03-24T00:04:01.514Z,11.95
2019-03-24T00:06:52.249Z,11.97
2019-03-24T00:09:43.261Z,12.00
2019-03-24T00:12:34.296Z,12.01
2019-03-24T00:15:26.528Z,12.03
2019-03-24T00:18:17.552Z,12.05
2019-03-24T00:21:07.900Z,12.05
2019-03-24T00:23:58.486Z,12.08
2019-03-24T00:26:49.187Z,12.10
2019-03-24T00:29:39.719Z,12.11
2019-03-24T00:32:30.362Z,12.04
2019-03-24T00:35:20.876Z,12.08
2019-03-24T00:38:11.753Z,12.06
2019-03-24T00:41:02.043Z,12.04
2019-03-24T00:43:52.694Z,11.97
2019-03-24T00:46:43.372Z,11.98
2019-03-24T00:49:34.148Z,11.98
2019-03-24T00:52:25.132Z,11.96
2019-03-24T00:55:16.298Z,11.99
2019-03-24T00:58:07.091Z,11.98
2019-03-24T01:00:57.720Z,11.97
2019-03-24T01:03:47.990Z,11.98
2019-03-24T01:06:38.217Z,12.00
2019-03-24T01:09:28.475Z,12.02
2019-03-24T01:12:19.176Z,12.03
2019-03-24T01:15:10.684Z,12.04
2019-03-24T01:18:01.750Z,12.05
2019-03-24T01:20:52.605Z,12.08
2019-03-24T01:23:43.547Z,12.09
2019-03-24T01:26:34.416Z,12.13
2019-03-24T01:29:25.987Z,12.15
2019-03-24T01:32:17.017Z,12.14
2019-03-24T01:35:08.441Z,12.17
2019-03-24T01:37:59.315Z,12.17
2019-03-24T01:40:50.369Z,12.15
2019-03-24T01:43:41.136Z,12.17
2019-03-24T01:46:33.265Z,12.19
2019-03-24T01:49:24.515Z,12.22
2019-03-24T01:52:15.521Z,12.24
2019-03-24T01:55:06.416Z,12.27
2019-03-24T01:57:57.065Z,12.30
2019-03-24T02:00:47.838Z,12.32
2019-03-24T02:03:38.617Z,12.35
2019-03-24T02:06:29.479Z,12.34
2019-03-24T02:09:20.154Z,12.35
2019-03-24T02:12:10.804Z,12.37
2019-03-24T02:15:01.420Z,12.40
2019-03-24T02:17:53.252Z,12.43
2019-03-24T02:20:43.602Z,12.49
2019-03-24T02:23:34.417Z,12.50
2019-03-24T02:26:24.876Z,12.51
2019-03-24T02:29:16.279Z,12.55
2019-03-24T02:32:06.975Z,12.59
2019-03-24T02:34:57.704Z,12.61
2019-03-24T02:37:48.414Z,12.64
2019-03-24T02:40:39.084Z,12.67
2019-03-24T02:43:28.915Z,12.67
2019-03-24T02:46:24.647Z,12.70
2019-03-24T02:49:12.302Z,12.72
2019-03-24T02:52:02.800Z,12.74
2019-03-24T02:54:53.699Z,12.74
2019-03-24T02:57:44.664Z,12.74
2019-03-24T03:00:35.050Z,12.75
2019-03-24T03:03:26.055Z,12.79
2019-03-24T03:06:16.770Z,12.81
2019-03-24T03:09:08.493Z,12.83
2019-03-24T03:11:59.469Z,12.83
2019-03-24T03:14:50.583Z,12.81
2019-03-24T03:17:41.763Z,12.81
2019-03-24T03:20:32.566Z,12.84
2019-03-24T03:23:23.711Z,12.84
2019-03-24T03:26:14.474Z,12.85
2019-03-24T03:29:05.304Z,12.86
2019-03-24T03:31:56.025Z,12.89
2019-03-24T03:34:46.111Z,12.87
2019-03-24T03:37:37.861Z,12.84
2019-03-24T03:40:28.624Z,12.86
2019-03-24T03:43:19.261Z,12.85
2019-03-24T03:46:09.819Z,12.85
2019-03-24T03:49:00.271Z,12.86
2019-03-24T03:51:51.561Z,12.85
2019-03-24T03:54:42.926Z,12.84
2019-03-24T03:57:34.003Z,12.84
2019-03-24T04:00:36.977Z,12.80
2019-03-24T04:03:27.571Z,12.81
2019-03-24T04:06:18.194Z,12.80
2019-03-24T04:09:09.220Z,12.79
2019-03-24T04:11:59.798Z,12.79
2019-03-24T04:14:51.184Z,12.81
2019-03-24T04:17:41.761Z,12.79
2019-03-24T04:20:33.101Z,12.79
2019-03-24T04:23:23.593Z,12.79
2019-03-24T04:26:14.540Z,12.80
2019-03-24T04:29:05.584Z,12.81
2019-03-24T04:31:56.630Z,12.81
2019-03-24T04:34:47.532Z,12.81
2019-03-24T04:37:38.151Z,12.81
2019-03-24T04:40:29.074Z,12.80
2019-03-24T04:43:19.799Z,12.80
2019-03-24T04:46:10.538Z,12.80
2019-03-24T04:49:01.053Z,12.79
2019-03-24T04:51:51.660Z,12.81
2019-03-24T04:54:42.525Z,12.81
2019-03-24T04:57:33.347Z,12.75
2019-03-24T05:00:36.327Z,12.78
2019-03-24T05:03:26.631Z,12.78
2019-03-24T05:06:18.441Z,12.78
2019-03-24T05:09:09.704Z,12.73
2019-03-24T05:11:59.544Z,12.72
2019-03-24T05:14:49.731Z,12.70
2019-03-24T05:17:39.866Z,12.69
2019-03-24T05:20:30.251Z,12.67
2019-03-24T05:23:21.097Z,12.65
2019-03-24T05:26:12.027Z,12.58
2019-03-24T05:29:03.099Z,12.55
2019-03-24T05:31:53.444Z,12.55
2019-03-24T05:34:44.075Z,12.53
2019-03-24T05:37:35.006Z,12.55
2019-03-24T05:40:26.026Z,12.53
2019-03-24T05:43:16.330Z,12.52
2019-03-24T05:46:06.994Z,12.51
2019-03-24T05:48:57.851Z,12.50
2019-03-24T05:51:48.535Z,12.48
2019-03-24T05:54:39.360Z,12.48
2019-03-24T05:57:30.188Z,12.49
2019-03-24T06:00:21.252Z,12.46
2019-03-24T06:03:11.974Z,12.40
2019-03-24T06:06:02.439Z,12.32
2019-03-24T06:08:52.006Z,12.28
2019-03-24T06:11:42.571Z,12.19
2019-03-24T06:14:33.585Z,12.19
2019-03-24T06:17:24.706Z,12.14
2019-03-24T06:20:15.836Z,12.07
2019-03-24T06:23:06.101Z,12.05
2019-03-24T06:25:56.798Z,12.02
2019-03-24T06:28:47.761Z,11.99
2019-03-24T06:31:38.273Z,11.99
2019-03-24T06:34:28.171Z,11.93
2019-03-24T06:37:19.073Z,11.94
2019-03-24T06:40:10.075Z,11.90
2019-03-24T06:43:00.270Z,11.87
2019-03-24T06:45:51.289Z,11.85
2019-03-24T06:48:42.210Z,11.83
2019-03-24T06:51:32.765Z,11.84
2019-03-24T06:54:23.488Z,11.89
2019-03-24T06:57:14.267Z,11.92
2019-03-24T07:00:05.703Z,11.96
2019-03-24T07:02:56.698Z,11.90
2019-03-24T07:05:46.894Z,11.99
2019-03-24T07:08:37.866Z,11.99
2019-03-24T07:11:28.342Z,12.02
2019-03-24T07:14:18.867Z,12.05
2019-03-24T07:17:09.699Z,12.05
2019-03-24T07:20:00.553Z,12.07
2019-03-24T07:22:51.947Z,12.07
2019-03-24T07:25:42.769Z,12.09
2019-03-24T07:28:34.236Z,12.09
2019-03-24T07:31:25.122Z,12.13
2019-03-24T07:34:15.063Z,12.16
2019-03-24T07:37:05.261Z,12.17
2019-03-24T07:39:56.293Z,12.17
2019-03-24T07:42:46.990Z,12.18
2019-03-24T07:45:37.341Z,12.22
2019-03-24T07:48:28.021Z,12.21
2019-03-24T07:51:18.094Z,12.25
2019-03-24T07:54:08.675Z,12.26
2019-03-24T07:56:59.159Z,12.26
2019-03-24T07:59:49.787Z,12.30
2019-03-24T08:02:51.015Z,12.30
2019-03-24T08:05:37.063Z,12.33
2019-03-24T08:08:27.922Z,12.36
2019-03-24T08:11:18.783Z,12.40
2019-03-24T08:14:11.056Z,12.32
2019-03-24T08:17:01.586Z,12.34
2019-03-24T08:19:51.620Z,12.30
2019-03-24T08:22:42.447Z,12.27
2019-03-24T08:25:33.251Z,12.31
2019-03-24T08:28:24.001Z,12.41
2019-03-24T08:31:15.095Z,12.47
2019-03-24T08:34:06.460Z,12.53
2019-03-24T08:36:57.603Z,12.60
2019-03-24T08:39:48.346Z,12.64
2019-03-24T08:42:39.103Z,12.63
2019-03-24T08:45:30.655Z,12.71
2019-03-24T08:48:21.241Z,12.72
2019-03-24T08:51:11.927Z,12.76
2019-03-24T08:54:02.779Z,12.82
2019-03-24T08:56:53.665Z,12.83
2019-03-24T08:59:44.197Z,12.86
2019-03-24T09:02:34.391Z,12.92
2019-03-24T09:05:24.930Z,12.91
2019-03-24T09:08:15.859Z,12.97
2019-03-24T09:11:07.159Z,13.00
2019-03-24T09:13:58.084Z,13.05
2019-03-24T09:16:49.113Z,13.06
2019-03-24T09:19:40.188Z,13.11
2019-03-24T09:22:30.998Z,13.16
2019-03-24T09:25:21.580Z,13.23
2019-03-24T09:28:12.677Z,13.28
2019-03-24T09:31:03.816Z,13.35
2019-03-24T09:33:54.944Z,13.42
2019-03-24T09:36:45.221Z,13.50
2019-03-24T09:39:35.955Z,13.56
2019-03-24T09:42:26.839Z,13.63
2019-03-24T09:45:17.547Z,13.69
2019-03-24T09:48:09.165Z,13.77
2019-03-24T09:50:59.737Z,13.80
2019-03-24T09:53:51.625Z,13.85
2019-03-24T09:56:41.501Z,13.91
2019-03-24T09:59:31.826Z,13.98
2019-03-24T10:02:23.050Z,14.02
2019-03-24T10:05:14.515Z,14.04
2019-03-24T10:08:05.924Z,14.13
2019-03-24T10:10:56.807Z,14.23
2019-03-24T10:13:47.397Z,14.31
2019-03-24T10:16:38.051Z,14.34
2019-03-24T10:19:28.815Z,14.32
2019-03-24T10:22:19.433Z,14.38
2019-03-24T10:25:10.837Z,14.48
2019-03-24T10:28:01.898Z,14.59
2019-03-24T10:30:52.833Z,14.71
2019-03-24T10:33:43.380Z,14.78
2019-03-24T10:36:34.195Z,14.88
2019-03-24T10:39:25.031Z,14.97
2019-03-24T10:42:15.896Z,15.09
2019-03-24T10:45:07.860Z,15.22
2019-03-24T10:47:58.428Z,15.32
2019-03-24T10:50:49.333Z,15.47
2019-03-24T10:53:40.367Z,15.62
2019-03-24T10:56:30.957Z,15.69
2019-03-24T10:59:21.364Z,15.76
2019-03-24T11:02:11.721Z,15.90
2019-03-24T11:05:02.626Z,16.05
2019-03-24T11:07:53.010Z,16.15
2019-03-24T11:10:44.445Z,16.28
2019-03-24T11:13:34.988Z,16.49
2019-03-24T11:16:25.981Z,16.58
2019-03-24T11:19:16.638Z,16.52
2019-03-24T11:22:07.160Z,16.51
2019-03-24T11:24:57.801Z,16.39
2019-03-24T11:27:48.515Z,16.38
2019-03-24T11:30:39.309Z,16.35
2019-03-24T11:33:30.051Z,16.27
2019-03-24T11:36:20.910Z,16.21
2019-03-24T11:39:11.621Z,16.10
2019-03-24T11:42:02.484Z,15.94
2019-03-24T11:44:53.286Z,15.82
2019-03-24T11:47:43.408Z,15.77
2019-03-24T11:50:35.120Z,15.69
2019-03-24T11:53:25.266Z,15.54
2019-03-24T11:56:15.923Z,15.43
2019-03-24T11:59:06.790Z,15.36
2019-03-24T12:01:58.179Z,15.35
2019-03-24T12:04:49.439Z,15.25
2019-03-24T12:07:40.079Z,15.20
2019-03-24T12:10:31.238Z,15.23
2019-03-24T12:13:21.924Z,15.25
2019-03-24T12:16:12.751Z,15.19
2019-03-24T12:19:03.393Z,15.19
2019-03-24T12:21:53.873Z,15.16
2019-03-24T12:24:44.366Z,15.13
2019-03-24T12:27:34.702Z,15.13
2019-03-24T12:30:25.545Z,15.06
2019-03-24T12:33:16.332Z,15.07
2019-03-24T12:36:07.337Z,15.09
2019-03-24T12:38:58.133Z,15.02
2019-03-24T12:41:49.039Z,14.97
2019-03-24T12:44:39.611Z,14.91
2019-03-24T12:47:30.894Z,14.95
2019-03-24T12:50:30.978Z,14.98
2019-03-24T12:53:13.909Z,14.93
2019-03-24T12:56:04.915Z,14.95
2019-03-24T12:58:56.440Z,14.99
2019-03-24T13:01:47.437Z,15.00
2019-03-24T13:04:37.737Z,15.01
2019-03-24T13:07:28.557Z,15.00
2019-03-24T13:10:19.068Z,14.94
2019-03-24T13:13:09.457Z,14.88
2019-03-24T13:16:00.215Z,14.79
2019-03-24T13:18:50.792Z,14.75
2019-03-24T13:21:41.917Z,14.69
2019-03-24T13:24:33.192Z,14.61
2019-03-24T13:27:23.762Z,14.57
2019-03-24T13:30:15.099Z,14.57
2019-03-24T13:33:05.992Z,14.55
2019-03-24T13:36:05.581Z,14.45
2019-03-24T13:38:56.294Z,14.37
2019-03-24T13:41:47.049Z,14.26
2019-03-24T13:44:37.160Z,14.16
2019-03-24T13:47:27.049Z,13.97
2019-03-24T13:50:17.672Z,13.89
2019-03-24T13:53:08.232Z,13.86
2019-03-24T13:55:59.177Z,13.81
2019-03-24T13:58:50.657Z,13.74
2019-03-24T14:01:41.732Z,13.71
2019-03-24T14:04:32.453Z,13.67
2019-03-24T14:07:23.563Z,13.64
2019-03-24T14:10:14.368Z,13.59
2019-03-24T14:13:05.186Z,13.54
2019-03-24T14:15:55.913Z,13.57
2019-03-24T14:18:47.050Z,13.59
2019-03-24T14:21:38.177Z,13.66
2019-03-24T14:24:29.734Z,13.66
2019-03-24T14:27:21.499Z,13.63
2019-03-24T14:30:13.364Z,13.65
2019-03-24T14:33:03.506Z,13.73
2019-03-24T14:35:54.935Z,13.80
2019-03-24T14:38:45.628Z,13.80
2019-03-24T14:41:36.226Z,13.83
2019-03-24T14:44:26.985Z,13.80
2019-03-24T14:47:17.212Z,13.78
2019-03-24T14:50:07.979Z,13.75
2019-03-24T14:52:59.191Z,13.80
2019-03-24T14:55:53.637Z,13.85
2019-03-24T14:58:45.513Z,13.90
2019-03-24T15:01:35.931Z,13.95
2019-03-24T15:04:27.431Z,13.93
2019-03-24T15:07:19.316Z,13.90
2019-03-24T15:10:10.662Z,13.89
2019-03-24T15:13:04.645Z,13.92
2019-03-24T15:16:12.045Z,13.91
2019-03-24T15:19:02.982Z,13.93
2019-03-24T15:21:52.991Z,13.94
2019-03-24T15:24:44.493Z,13.93
2019-03-24T15:27:34.717Z,13.93
2019-03-24T15:30:24.251Z,13.91
2019-03-24T15:33:14.585Z,13.94
2019-03-24T15:36:05.138Z,13.93
2019-03-24T15:38:56.092Z,13.94
2019-03-24T15:41:47.012Z,13.93
2019-03-24T15:44:38.015Z,13.93
2019-03-24T15:47:28.302Z,13.95
2019-03-24T15:50:19.906Z,13.94
2019-03-24T15:53:10.333Z,13.95
2019-03-24T15:56:01.343Z,13.94
2019-03-24T15:58:52.191Z,13.91
2019-03-24T16:01:43.649Z,13.90
2019-03-24T16:04:34.093Z,13.85
2019-03-24T16:07:24.942Z,13.88
2019-03-24T16:10:15.755Z,13.87
2019-03-24T16:13:06.555Z,13.83
2019-03-24T16:15:57.525Z,13.86
2019-03-24T16:18:48.456Z,13.88
2019-03-24T16:21:39.142Z,13.85
2019-03-24T16:24:30.228Z,13.85
2019-03-24T16:27:19.804Z,13.82
2019-03-24T16:30:10.808Z,13.81
2019-03-24T16:33:00.958Z,13.80
2019-03-24T16:35:51.365Z,13.78
2019-03-24T16:38:48.987Z,13.77
2019-03-24T16:41:35.048Z,13.76
2019-03-24T16:44:25.655Z,13.74
2019-03-24T16:47:15.790Z,13.73
2019-03-24T16:50:07.110Z,13.72
2019-03-24T16:52:58.055Z,13.69
2019-03-24T16:55:48.067Z,13.59
2019-03-24T16:58:38.788Z,13.54
2019-03-24T17:01:28.916Z,13.40
2019-03-24T17:04:18.456Z,13.29
2019-03-24T17:07:09.079Z,13.23
2019-03-24T17:09:59.202Z,13.15
2019-03-24T17:12:49.404Z,13.01
2019-03-24T17:15:41.526Z,12.98
2019-03-24T17:18:32.527Z,12.96
2019-03-24T17:21:23.874Z,12.93
2019-03-24T17:24:13.743Z,12.92
2019-03-24T17:27:05.910Z,12.91
2019-03-24T17:29:56.519Z,12.92
2019-03-24T17:32:46.180Z,12.93
2019-03-24T17:35:37.129Z,12.91
2019-03-24T17:38:28.102Z,12.91
2019-03-24T17:41:19.061Z,12.89
2019-03-24T17:44:09.917Z,12.84
2019-03-24T17:47:01.043Z,12.80
2019-03-24T17:49:50.983Z,12.74
2019-03-24T17:52:41.344Z,12.70
2019-03-24T17:55:32.448Z,12.69
2019-03-24T17:58:22.899Z,12.65
2019-03-24T18:01:14.243Z,12.61
2019-03-24T18:04:04.758Z,12.59
2019-03-24T18:06:55.812Z,12.55
2019-03-24T18:09:45.554Z,12.55
2019-03-24T18:12:36.140Z,12.51
2019-03-24T18:15:27.091Z,12.50
2019-03-24T18:18:17.886Z,12.47
2019-03-24T18:21:08.890Z,12.45
2019-03-24T18:23:59.059Z,12.43
2019-03-24T18:26:49.139Z,12.42
2019-03-24T18:29:39.772Z,12.39
2019-03-24T18:32:30.758Z,12.34
2019-03-24T18:35:22.686Z,12.32
2019-03-24T18:38:13.197Z,12.25
2019-03-24T18:41:02.891Z,12.17
2019-03-24T18:43:53.510Z,12.13
2019-03-24T18:46:45.171Z,12.08
2019-03-24T18:49:35.508Z,12.02
2019-03-24T18:52:26.381Z,11.96
2019-03-24T18:55:17.346Z,11.91
2019-03-24T18:58:08.274Z,11.85
2019-03-24T19:00:58.589Z,11.80
2019-03-24T19:03:49.580Z,11.74
2019-03-24T19:06:39.701Z,11.64
2019-03-24T19:09:29.738Z,11.56
2019-03-24T19:12:20.579Z,11.51
2019-03-24T19:15:11.728Z,11.44
2019-03-24T19:18:01.815Z,11.41
2019-03-24T19:20:52.294Z,11.38
2019-03-24T19:23:42.018Z,11.30
2019-03-24T19:26:32.585Z,11.26
2019-03-24T19:29:22.318Z,11.22
2019-03-24T19:32:13.483Z,11.20
2019-03-24T19:35:04.976Z,11.20
2019-03-24T19:37:57.761Z,11.16
2019-03-24T19:40:48.605Z,11.17
2019-03-24T19:43:40.012Z,11.17
2019-03-24T19:46:30.725Z,11.13
2019-03-24T19:49:21.971Z,11.14
2019-03-24T19:52:12.419Z,11.14
2019-03-24T19:55:03.256Z,11.15
2019-03-24T19:57:54.406Z,11.16
2019-03-24T20:00:45.077Z,11.13
2019-03-24T20:03:35.103Z,11.11
2019-03-24T20:06:25.409Z,11.08
2019-03-24T20:09:16.281Z,11.05
2019-03-24T20:12:07.331Z,11.07
2019-03-24T20:14:58.256Z,11.08
2019-03-24T20:17:49.002Z,11.06
2019-03-24T20:20:39.637Z,11.02
2019-03-24T20:23:30.313Z,11.00
2019-03-24T20:26:21.216Z,10.96
2019-03-24T20:29:12.030Z,10.89
2019-03-24T20:32:03.125Z,10.85
2019-03-24T20:34:55.115Z,10.79
2019-03-24T20:37:45.562Z,10.74
2019-03-24T20:40:35.896Z,10.68
2019-03-24T20:43:26.242Z,10.62
2019-03-24T20:46:16.984Z,10.58
2019-03-24T20:49:07.676Z,10.59
2019-03-24T20:51:58.532Z,10.62
2019-03-24T20:54:49.012Z,10.59
2019-03-24T20:57:39.742Z,10.62
2019-03-24T21:00:37.730Z,10.62
2019-03-24T21:03:28.328Z,10.63
2019-03-24T21:06:19.296Z,10.64
2019-03-24T21:09:10.427Z,10.64
2019-03-24T21:12:01.276Z,10.63
2019-03-24T21:14:52.056Z,10.64
2019-03-24T21:17:42.880Z,10.62
2019-03-24T21:20:33.824Z,10.59
2019-03-24T21:23:29.451Z,10.55
2019-03-24T21:26:16.188Z,10.50
2019-03-24T21:29:06.419Z,10.45
2019-03-24T21:31:57.376Z,10.41
2019-03-24T21:34:49.587Z,10.34
2019-03-24T21:37:40.549Z,10.25
2019-03-24T21:40:32.377Z,10.18
2019-03-24T21:43:23.471Z,10.12
2019-03-24T21:46:14.009Z,10.06
2019-03-24T21:49:05.073Z,9.98
2019-03-24T21:51:55.664Z,9.91
2019-03-24T21:54:46.355Z,9.88
2019-03-24T21:57:36.927Z,9.83
2019-03-24T22:00:39.161Z,9.82
2019-03-24T22:03:30.297Z,9.78
2019-03-24T22:06:20.917Z,9.77
2019-03-24T22:09:12.216Z,9.79
2019-03-24T22:12:03.207Z,9.77
2019-03-24T22:14:54.202Z,9.75
2019-03-24T22:17:44.964Z,9.73
2019-03-24T22:20:48.250Z,9.69
2019-03-24T22:23:29.312Z,9.69
2019-03-24T22:26:20.331Z,9.69
2019-03-24T22:29:10.732Z,9.67
2019-03-24T22:32:01.118Z,9.65
2019-03-24T22:34:51.906Z,9.67
2019-03-24T22:37:42.367Z,9.66
2019-03-24T22:40:33.033Z,9.67
2019-03-24T22:43:23.844Z,9.63
2019-03-24T22:46:14.501Z,9.60
2019-03-24T22:49:05.942Z,9.61
2019-03-24T22:52:06.898Z,9.61
2019-03-24T22:54:48.808Z,9.60
2019-03-24T22:57:39.593Z,9.59
2019-03-24T23:00:48.503Z,9.55
2019-03-24T23:03:39.469Z,9.50
2019-03-24T23:06:30.710Z,9.44
2019-03-24T23:09:21.227Z,9.38
2019-03-24T23:12:11.746Z,9.31
2019-03-24T23:15:02.541Z,9.22
2019-03-24T23:17:53.725Z,9.19
2019-03-24T23:20:44.356Z,9.12
2019-03-24T23:23:35.114Z,9.07
2019-03-24T23:26:25.915Z,9.03
2019-03-24T23:29:16.427Z,8.95
2019-03-24T23:32:07.011Z,8.89
2019-03-24T23:34:57.645Z,8.83
2019-03-24T23:37:48.360Z,8.78
2019-03-24T23:40:39.037Z,8.72
2019-03-24T23:43:30.983Z,8.65
2019-03-24T23:46:21.731Z,8.58
2019-03-24T23:49:12.628Z,8.50
2019-03-24T23:52:04.693Z,8.45
2019-03-24T23:54:55.435Z,8.41
2019-03-24T23:57:45.412Z,8.34
